createdAt,value
2023-03-15T00:00:10.533Z,10.75
2023-03-15T00:02:56.227Z,10.68
2023-03-15T00:05:43.581Z,10.68
2023-03-15T00:08:33.197Z,10.62
2023-03-15T00:11:19.048Z,10.59
2023-03-15T00:14:40.780Z,10.55
2023-03-15T00:17:26.712Z,10.56
2023-03-15T00:20:14.981Z,10.57
2023-03-15T00:23:00.671Z,10.57
2023-03-15T00:25:48.222Z,10.58
2023-03-15T00:28:34.071Z,10.60
2023-03-15T00:31:23.233Z,10.61
2023-03-15T00:34:09.524Z,10.61
2023-03-15T00:36:55.231Z,10.56
2023-03-15T00:39:41.340Z,10.60
2023-03-15T00:42:28.719Z,10.57
2023-03-15T00:45:14.543Z,10.55
2023-03-15T00:48:00.523Z,10.53
2023-03-15T00:50:46.602Z,10.48
2023-03-15T00:53:33.511Z,10.40
2023-03-15T00:56:22.235Z,10.40
2023-03-15T00:59:08.739Z,10.32
2023-03-15T01:01:54.436Z,10.29
2023-03-15T01:04:41.698Z,10.23
2023-03-15T01:07:27.576Z,10.20
2023-03-15T01:10:14.503Z,10.23
2023-03-15T01:13:00.610Z,10.20
2023-03-15T01:15:47.816Z,10.16
2023-03-15T01:18:33.848Z,10.12
2023-03-15T01:21:20.671Z,10.11
2023-03-15T01:24:07.596Z,10.03
2023-03-15T01:26:53.289Z,10.04
2023-03-15T01:29:39.057Z,10.01
2023-03-15T01:32:27.098Z,10.01
2023-03-15T01:35:13.279Z,9.99
2023-03-15T01:37:59.570Z,9.96
2023-03-15T01:40:46.363Z,9.99
2023-03-15T01:43:33.782Z,9.97
2023-03-15T01:46:20.156Z,9.92
2023-03-15T01:49:23.525Z,9.78
2023-03-15T01:52:33.047Z,9.80
2023-03-15T01:55:21.989Z,9.75
2023-03-15T01:58:24.820Z,9.70
2023-03-15T02:01:11.582Z,9.71
2023-03-15T02:04:09.153Z,9.62
2023-03-15T02:07:01.830Z,9.48
2023-03-15T02:10:13.678Z,9.37
2023-03-15T02:13:07.672Z,9.33
2023-03-15T02:15:53.724Z,9.30
2023-03-15T02:18:55.042Z,9.27
2023-03-15T02:22:24.240Z,9.30
2023-03-15T02:25:29.156Z,9.32
2023-03-15T02:28:15.289Z,9.28
2023-03-15T02:31:01.784Z,9.31
2023-03-15T02:33:53.267Z,9.28
2023-03-15T02:36:41.718Z,9.31
2023-03-15T02:39:28.478Z,9.26
2023-03-15T02:42:14.612Z,9.29
2023-03-15T02:45:00.659Z,9.26
2023-03-15T02:47:49.915Z,9.29
2023-03-15T02:50:36.186Z,9.34
2023-03-15T02:53:22.201Z,9.33
2023-03-15T02:56:08.092Z,9.38
2023-03-15T02:58:53.973Z,9.31
2023-03-15T03:01:40.265Z,9.32
2023-03-15T03:04:26.081Z,9.29
2023-03-15T03:07:11.822Z,9.30
2023-03-15T03:10:06.654Z,9.24
2023-03-15T03:13:02.004Z,9.23
2023-03-15T03:15:58.772Z,9.26
2023-03-15T03:18:47.561Z,9.25
2023-03-15T03:21:33.452Z,9.28
2023-03-15T03:24:19.957Z,9.37
2023-03-15T03:27:06.513Z,9.34
2023-03-15T03:29:56.344Z,9.37
2023-03-15T03:32:42.497Z,9.42
2023-03-15T03:35:29.117Z,9.41
2023-03-15T03:38:14.999Z,9.39
2023-03-15T03:41:05.171Z,9.45
2023-03-15T03:43:52.173Z,9.45
2023-03-15T03:46:39.158Z,9.52
2023-03-15T03:49:24.919Z,9.49
2023-03-15T03:52:10.658Z,9.46
2023-03-15T03:54:56.455Z,9.49
2023-03-15T03:57:42.916Z,9.48
2023-03-15T04:00:33.573Z,9.56
2023-03-15T04:03:19.360Z,9.56
2023-03-15T04:06:08.164Z,9.56
2023-03-15T04:08:58.344Z,9.66
2023-03-15T04:11:51.790Z,9.69
2023-03-15T04:14:37.943Z,9.67
2023-03-15T04:17:26.746Z,9.63
2023-03-15T04:20:13.109Z,9.64
2023-03-15T04:23:03.089Z,9.57
2023-03-15T04:26:15.214Z,9.53
2023-03-15T04:29:15.654Z,9.49
2023-03-15T04:32:17.657Z,9.50
2023-03-15T04:35:35.315Z,9.46
2023-03-15T04:38:41.448Z,9.38
2023-03-15T04:41:28.064Z,9.40
2023-03-15T04:44:40.873Z,9.36
2023-03-15T04:47:47.122Z,9.36
2023-03-15T04:50:51.088Z,9.33
2023-03-15T04:53:53.589Z,9.34
2023-03-15T04:56:59.549Z,9.34
2023-03-15T05:00:18.490Z,9.28
2023-03-15T05:03:23.482Z,9.25
2023-03-15T05:06:31.858Z,9.20
2023-03-15T05:09:46.814Z,9.09
2023-03-15T05:12:53.022Z,9.14
2023-03-15T05:15:56.161Z,9.08
2023-03-15T05:19:05.059Z,9.02
2023-03-15T05:21:58.674Z,8.93
2023-03-15T05:25:01.294Z,8.92
2023-03-15T05:27:59.371Z,8.79
2023-03-15T05:31:05.420Z,8.80
2023-03-15T05:34:12.255Z,8.82
2023-03-15T05:37:22.717Z,8.81
2023-03-15T05:40:30.157Z,8.79
2023-03-15T05:43:24.851Z,8.73
2023-03-15T05:46:25.207Z,8.74
2023-03-15T05:49:28.207Z,8.83
2023-03-15T05:52:36.572Z,8.83
2023-03-15T05:55:40.057Z,8.88
2023-03-15T05:58:44.066Z,8.86
2023-03-15T06:01:59.848Z,8.89
2023-03-15T06:04:53.136Z,8.89
2023-03-15T06:07:42.923Z,8.79
2023-03-15T06:10:28.946Z,8.82
2023-03-15T06:13:18.404Z,8.81
2023-03-15T06:16:05.509Z,8.80
2023-03-15T06:18:53.851Z,8.80
2023-03-15T06:21:39.946Z,8.80
2023-03-15T06:24:31.740Z,8.82
2023-03-15T06:27:22.414Z,8.86
2023-03-15T06:30:15.901Z,8.86
2023-03-15T06:33:03.605Z,8.83
2023-03-15T06:35:50.719Z,8.89
2023-03-15T06:38:36.782Z,8.87
2023-03-15T06:41:22.560Z,8.91
2023-03-15T06:44:13.299Z,8.79
2023-03-15T06:47:00.120Z,8.89
2023-03-15T06:49:50.429Z,8.87
2023-03-15T06:52:39.642Z,8.89
2023-03-15T06:55:26.006Z,8.89
2023-03-15T06:58:12.705Z,8.88
2023-03-15T07:00:59.069Z,8.83
2023-03-15T07:03:45.027Z,8.86
2023-03-15T07:06:30.942Z,8.82
2023-03-15T07:09:16.821Z,8.81
2023-03-15T07:12:02.495Z,8.82
2023-03-15T07:14:49.570Z,8.79
2023-03-15T07:17:35.517Z,8.81
2023-03-15T07:20:21.303Z,8.76
2023-03-15T07:23:07.000Z,8.79
2023-03-15T07:25:55.490Z,8.76
2023-03-15T07:28:43.651Z,8.73
2023-03-15T07:31:29.133Z,8.73
2023-03-15T07:34:14.750Z,8.74
2023-03-15T07:37:00.708Z,8.70
2023-03-15T07:39:48.451Z,8.71
2023-03-15T07:42:34.222Z,8.72
2023-03-15T07:45:20.785Z,8.71
2023-03-15T07:48:06.716Z,8.71
2023-03-15T07:50:55.235Z,8.75
2023-03-15T07:53:42.184Z,8.73
2023-03-15T07:56:27.979Z,8.73
2023-03-15T07:59:13.784Z,8.64
2023-03-15T08:02:01.599Z,8.60
2023-03-15T08:04:50.977Z,8.55
2023-03-15T08:07:37.543Z,8.62
2023-03-15T08:10:23.593Z,8.65
2023-03-15T08:13:09.497Z,8.56
2023-03-15T08:15:55.303Z,8.65
2023-03-15T08:18:41.069Z,8.59
2023-03-15T08:21:26.705Z,8.66
2023-03-15T08:24:13.015Z,8.67
2023-03-15T08:26:58.730Z,8.71
2023-03-15T08:29:44.793Z,8.72
2023-03-15T08:32:30.875Z,8.81
2023-03-15T08:35:17.707Z,8.80
2023-03-15T08:38:03.613Z,8.83
2023-03-15T08:40:49.426Z,8.87
2023-03-15T08:43:35.261Z,8.87
2023-03-15T08:46:22.207Z,8.80
2023-03-15T08:49:08.174Z,8.77
2023-03-15T08:51:53.882Z,8.69
2023-03-15T08:54:40.560Z,8.70
2023-03-15T08:57:26.599Z,8.72
2023-03-15T09:00:23.252Z,8.71
2023-03-15T09:03:08.953Z,8.76
2023-03-15T09:05:58.783Z,8.77
2023-03-15T09:08:44.685Z,8.75
2023-03-15T09:11:30.516Z,8.72
2023-03-15T09:14:16.718Z,8.63
2023-03-15T09:17:03.291Z,8.65
2023-03-15T09:19:49.202Z,8.63
2023-03-15T09:22:39.535Z,8.62
2023-03-15T09:25:26.169Z,8.59
2023-03-15T09:28:12.436Z,8.60
2023-03-15T09:31:00.032Z,8.60
2023-03-15T09:33:46.680Z,8.57
2023-03-15T09:36:33.353Z,8.60
2023-03-15T09:39:22.023Z,8.63
2023-03-15T09:42:20.005Z,8.72
2023-03-15T09:45:26.733Z,8.80
2023-03-15T09:48:21.730Z,8.86
2023-03-15T09:51:13.544Z,8.93
2023-03-15T09:54:03.569Z,9.00
2023-03-15T09:56:55.352Z,9.04
2023-03-15T09:59:44.056Z,9.09
2023-03-15T10:02:31.196Z,9.13
2023-03-15T10:05:21.436Z,9.13
2023-03-15T10:08:17.702Z,9.19
2023-03-15T10:11:38.624Z,9.14
2023-03-15T10:14:57.709Z,9.14
2023-03-15T10:18:05.173Z,9.12
2023-03-15T10:20:56.866Z,9.09
2023-03-15T10:23:49.822Z,9.09
2023-03-15T10:26:37.556Z,9.14
2023-03-15T10:29:25.739Z,9.17
2023-03-15T10:32:20.712Z,9.28
2023-03-15T10:35:15.172Z,9.34
2023-03-15T10:38:02.770Z,9.36
2023-03-15T10:40:53.650Z,9.34
2023-03-15T10:43:41.839Z,9.38
2023-03-15T10:46:28.122Z,9.31
2023-03-15T10:49:17.228Z,9.32
2023-03-15T10:52:03.992Z,9.27
2023-03-15T10:54:55.380Z,9.22
2023-03-15T10:57:55.418Z,9.19
2023-03-15T11:00:49.806Z,9.17
2023-03-15T11:03:37.234Z,9.09
2023-03-15T11:06:28.801Z,9.05
2023-03-15T11:09:17.693Z,9.03
2023-03-15T11:12:06.408Z,9.04
2023-03-15T11:15:00.777Z,9.03
2023-03-15T11:17:57.735Z,8.93
2023-03-15T11:20:45.961Z,8.91
2023-03-15T11:23:38.458Z,8.89
2023-03-15T11:26:32.596Z,8.75
2023-03-15T11:29:28.456Z,8.58
2023-03-15T11:32:23.313Z,8.45
2023-03-15T11:35:23.065Z,8.31
2023-03-15T11:38:15.950Z,8.19
2023-03-15T11:41:09.977Z,8.12
2023-03-15T11:44:39.182Z,8.00
2023-03-15T11:47:31.607Z,7.93
2023-03-15T11:50:21.063Z,7.85
2023-03-15T11:53:07.190Z,7.81
2023-03-15T11:55:54.804Z,7.74
2023-03-15T11:58:45.122Z,7.71
2023-03-15T12:01:31.168Z,7.66
2023-03-15T12:04:40.278Z,7.63
2023-03-15T12:07:35.144Z,7.71
2023-03-15T12:10:32.228Z,7.66
2023-03-15T12:13:30.320Z,7.66
2023-03-15T12:16:16.251Z,7.68
2023-03-15T12:19:10.714Z,7.64
2023-03-15T12:21:58.210Z,7.63
2023-03-15T12:24:45.739Z,7.56
2023-03-15T12:27:34.662Z,7.56
2023-03-15T12:30:24.757Z,7.54
2023-03-15T12:33:23.656Z,7.50
2023-03-15T12:36:17.034Z,7.48
2023-03-15T12:39:22.238Z,7.48
2023-03-15T12:42:13.784Z,7.45
2023-03-15T12:45:18.127Z,7.42
2023-03-15T12:48:06.586Z,7.42
2023-03-15T12:51:04.073Z,7.35
2023-03-15T12:53:50.801Z,7.35
2023-03-15T12:56:54.463Z,7.32
2023-03-15T12:59:56.436Z,7.34
2023-03-15T13:02:55.048Z,7.38
2023-03-15T13:05:45.241Z,7.43
2023-03-15T13:09:01.232Z,7.46
2023-03-15T13:11:49.877Z,7.50
2023-03-15T13:14:38.506Z,7.49
2023-03-15T13:17:27.802Z,7.50
2023-03-15T13:20:23.795Z,7.50
2023-03-15T13:23:26.577Z,7.54
2023-03-15T13:26:21.457Z,7.56
2023-03-15T13:29:07.376Z,7.57
2023-03-15T13:32:18.510Z,7.56
2023-03-15T13:35:11.481Z,7.59
2023-03-15T13:38:07.889Z,7.61
2023-03-15T13:40:55.500Z,7.74
2023-03-15T13:43:42.453Z,7.78
2023-03-15T13:46:30.894Z,7.74
2023-03-15T13:49:17.596Z,7.78
2023-03-15T13:52:06.832Z,7.74
2023-03-15T13:54:55.076Z,7.73
2023-03-15T13:57:41.011Z,7.69
2023-03-15T14:00:33.850Z,7.70
2023-03-15T14:03:24.079Z,7.70
2023-03-15T14:06:13.852Z,7.73
2023-03-15T14:09:12.244Z,7.73
2023-03-15T14:12:03.637Z,7.77
2023-03-15T14:14:52.439Z,7.80
2023-03-15T14:17:38.305Z,7.76
2023-03-15T14:20:30.112Z,7.77
2023-03-15T14:23:18.460Z,7.69
2023-03-15T14:26:10.323Z,7.77
2023-03-15T14:29:02.202Z,7.72
2023-03-15T14:31:52.056Z,7.75
2023-03-15T14:34:45.753Z,7.78
2023-03-15T14:37:31.845Z,7.81
2023-03-15T14:40:35.060Z,7.91
2023-03-15T14:43:21.944Z,7.93
2023-03-15T14:46:08.928Z,7.93
2023-03-15T14:48:54.943Z,7.98
2023-03-15T14:51:40.683Z,8.04
2023-03-15T14:54:26.451Z,8.09
2023-03-15T14:57:12.547Z,8.15
2023-03-15T14:59:58.352Z,8.14
2023-03-15T15:02:45.317Z,8.20
2023-03-15T15:05:34.632Z,8.21
2023-03-15T15:08:25.283Z,8.20
2023-03-15T15:11:11.093Z,8.23
2023-03-15T15:13:57.853Z,8.22
2023-03-15T15:16:44.339Z,8.12
2023-03-15T15:19:30.448Z,8.15
2023-03-15T15:22:16.401Z,8.12
2023-03-15T15:25:02.730Z,8.01
2023-03-15T15:27:49.200Z,8.04
2023-03-15T15:30:35.173Z,7.98
2023-03-15T15:33:23.185Z,8.02
2023-03-15T15:36:33.588Z,7.95
2023-03-15T15:39:27.698Z,7.94
2023-03-15T15:42:13.486Z,7.93
2023-03-15T15:44:59.144Z,7.86
2023-03-15T15:47:45.312Z,7.75
2023-03-15T15:50:34.372Z,7.63
2023-03-15T15:53:20.175Z,7.54
2023-03-15T15:56:06.346Z,7.52
2023-03-15T15:58:52.130Z,7.49
2023-03-15T16:01:49.298Z,7.41
2023-03-15T16:04:42.913Z,7.29
2023-03-15T16:07:29.132Z,7.26
2023-03-15T16:10:23.845Z,7.18
2023-03-15T16:13:11.243Z,7.15
2023-03-15T16:15:57.013Z,7.07
2023-03-15T16:18:43.523Z,7.03
2023-03-15T16:21:33.753Z,6.91
2023-03-15T16:24:30.296Z,6.92
2023-03-15T16:27:22.996Z,6.85
2023-03-15T16:30:22.048Z,6.76
2023-03-15T16:33:17.332Z,6.74
2023-03-15T16:36:03.964Z,6.66
2023-03-15T16:38:49.936Z,6.57
2023-03-15T16:41:36.100Z,6.50
2023-03-15T16:44:22.250Z,6.44
2023-03-15T16:47:08.470Z,6.37
2023-03-15T16:49:54.457Z,6.35
2023-03-15T16:52:42.128Z,6.32
2023-03-15T16:55:29.820Z,6.23
2023-03-15T16:58:17.989Z,6.17
2023-03-15T17:01:04.096Z,6.11
2023-03-15T17:03:49.586Z,6.08
2023-03-15T17:06:35.706Z,6.04
2023-03-15T17:09:22.394Z,5.98
2023-03-15T17:12:20.665Z,5.89
2023-03-15T17:15:06.796Z,5.86
2023-03-15T17:17:53.936Z,5.79
2023-03-15T17:20:41.083Z,5.66
2023-03-15T17:23:27.236Z,5.65
2023-03-15T17:26:14.583Z,5.67
2023-03-15T17:29:01.401Z,5.54
2023-03-15T17:31:47.807Z,5.55
2023-03-15T17:34:34.068Z,5.48
2023-03-15T17:37:20.443Z,5.49
2023-03-15T17:40:15.479Z,5.50
2023-03-15T17:43:03.988Z,5.47
2023-03-15T17:45:50.035Z,5.42
2023-03-15T17:48:35.666Z,5.44
2023-03-15T17:51:23.857Z,5.39
2023-03-15T17:54:20.417Z,5.36
2023-03-15T17:57:06.994Z,5.37
2023-03-15T17:59:58.729Z,5.36
2023-03-15T18:02:54.963Z,5.31
2023-03-15T18:05:44.689Z,5.31
2023-03-15T18:08:30.550Z,5.25
2023-03-15T18:11:25.899Z,5.23
2023-03-15T18:14:13.705Z,5.17
2023-03-15T18:16:59.550Z,5.19
2023-03-15T18:19:45.318Z,5.15
2023-03-15T18:22:31.399Z,5.20
2023-03-15T18:25:23.207Z,5.18
2023-03-15T18:28:09.455Z,5.15
2023-03-15T18:30:55.491Z,5.13
2023-03-15T18:33:41.400Z,5.12
2023-03-15T18:36:27.424Z,5.12
2023-03-15T18:39:14.763Z,5.07
2023-03-15T18:42:01.042Z,5.07
2023-03-15T18:44:47.017Z,5.02
2023-03-15T18:47:32.786Z,5.05
2023-03-15T18:50:19.658Z,5.06
2023-03-15T18:53:06.390Z,5.06
2023-03-15T18:55:52.474Z,5.06
2023-03-15T18:58:38.388Z,5.01
2023-03-15T19:01:25.039Z,5.08
2023-03-15T19:04:11.283Z,5.01
2023-03-15T19:06:57.232Z,5.02
2023-03-15T19:09:44.719Z,4.99
2023-03-15T19:12:30.779Z,4.98
2023-03-15T19:15:19.859Z,4.98
2023-03-15T19:18:05.715Z,4.94
2023-03-15T19:20:52.611Z,4.92
2023-03-15T19:23:38.753Z,4.93
2023-03-15T19:26:24.882Z,4.90
2023-03-15T19:29:11.235Z,4.91
2023-03-15T19:31:57.065Z,4.84
2023-03-15T19:34:43.380Z,4.90
2023-03-15T19:37:29.304Z,4.89
2023-03-15T19:40:16.678Z,4.89
2023-03-15T19:43:02.570Z,4.83
2023-03-15T19:45:48.218Z,4.85
2023-03-15T19:48:34.819Z,4.84
2023-03-15T19:51:21.155Z,4.89
2023-03-15T19:54:07.168Z,4.88
2023-03-15T19:56:54.099Z,4.90
2023-03-15T19:59:41.366Z,4.85
2023-03-15T20:02:26.983Z,4.84
2023-03-15T20:05:15.362Z,4.83
2023-03-15T20:08:02.153Z,4.81
2023-03-15T20:10:48.713Z,4.84
2023-03-15T20:13:36.296Z,4.86
2023-03-15T20:16:22.900Z,4.85
2023-03-15T20:19:08.468Z,4.83
2023-03-15T20:21:54.301Z,4.76
2023-03-15T20:24:42.616Z,4.79
2023-03-15T20:27:28.665Z,4.82
2023-03-15T20:30:15.894Z,4.83
2023-03-15T20:33:01.831Z,4.81
2023-03-15T20:35:47.963Z,4.70
2023-03-15T20:38:34.784Z,4.74
2023-03-15T20:41:21.196Z,4.79
2023-03-15T20:44:07.940Z,4.77
2023-03-15T20:46:56.789Z,4.73
2023-03-15T20:49:42.961Z,4.74
2023-03-15T20:52:29.128Z,4.71
2023-03-15T20:55:15.288Z,4.69
2023-03-15T20:58:01.391Z,4.63
2023-03-15T21:00:47.236Z,4.67
2023-03-15T21:03:34.552Z,4.60
2023-03-15T21:06:23.630Z,4.58
2023-03-15T21:09:09.881Z,4.55
2023-03-15T21:11:57.136Z,4.57
2023-03-15T21:14:43.383Z,4.53
2023-03-15T21:17:29.348Z,4.52
2023-03-15T21:20:15.824Z,4.45
2023-03-15T21:23:01.888Z,4.43
2023-03-15T21:25:54.419Z,4.40
2023-03-15T21:28:42.027Z,4.45
2023-03-15T21:31:28.226Z,4.41
2023-03-15T21:34:14.606Z,4.44
2023-03-15T21:37:00.358Z,4.38
2023-03-15T21:39:47.250Z,4.35
2023-03-15T21:42:33.811Z,4.37
2023-03-15T21:45:19.989Z,4.34
2023-03-15T21:48:06.874Z,4.27
2023-03-15T21:51:02.811Z,4.28
2023-03-15T21:53:50.495Z,4.30
2023-03-15T21:56:36.264Z,4.21
2023-03-15T21:59:28.113Z,4.22
2023-03-15T22:02:16.845Z,4.25
2023-03-15T22:05:02.997Z,4.24
2023-03-15T22:07:49.260Z,4.20
2023-03-15T22:10:35.260Z,4.20
2023-03-15T22:13:21.701Z,4.14
2023-03-15T22:16:12.167Z,4.18
2023-03-15T22:18:57.888Z,4.10
2023-03-15T22:21:43.850Z,4.12
2023-03-15T22:24:29.901Z,4.12
2023-03-15T22:27:15.768Z,4.09
2023-03-15T22:30:01.560Z,4.15
2023-03-15T22:32:47.552Z,4.11
2023-03-15T22:35:33.528Z,4.08
2023-03-15T22:38:19.794Z,4.06
2023-03-15T22:41:10.878Z,4.08
2023-03-15T22:43:57.784Z,4.03
2023-03-15T22:46:43.702Z,4.00
2023-03-15T22:49:29.480Z,4.00
2023-03-15T22:52:15.228Z,3.92
2023-03-15T22:55:01.013Z,4.00
2023-03-15T22:57:47.238Z,4.04
2023-03-15T23:00:32.995Z,4.01
2023-03-15T23:03:19.448Z,4.01
2023-03-15T23:06:05.515Z,3.95
2023-03-15T23:08:51.512Z,3.97
2023-03-15T23:11:37.574Z,3.93
2023-03-15T23:14:23.388Z,3.93
2023-03-15T23:17:10.222Z,3.88
2023-03-15T23:19:56.162Z,3.87
2023-03-15T23:22:42.036Z,3.84
2023-03-15T23:25:30.781Z,3.83
2023-03-15T23:28:17.898Z,3.85
2023-03-15T23:31:05.599Z,3.83
2023-03-15T23:33:51.634Z,3.85
2023-03-15T23:36:37.315Z,3.83
2023-03-15T23:39:23.119Z,3.82
2023-03-15T23:42:09.009Z,3.75
2023-03-15T23:44:55.734Z,3.76
2023-03-15T23:47:42.207Z,3.75
2023-03-15T23:50:28.957Z,3.77
2023-03-15T23:53:15.036Z,3.75
2023-03-15T23:56:01.464Z,3.76
2023-03-15T23:58:47.429Z,3.76
